Terminal Aerodrome Forecast
Issued by NWS

Home | Current Version | Previous Version | Text Only | Print | Product List | Glossary Off
Versions: 1 2 3 4 5 6 7 8 9 10 11 12 13 14 15 16 17 18 19 20 21 22

834
FTUS43 KMPX 151523 AAA
TAFRWF
TAF AMD
KRWF 151523Z 1515/1612 11006KT 5SM BR OVC009
     FM151900 13008KT P6SM BKN060 OVC250
     FM160000 13008KT P6SM VCSH OVC090
     FM160600 14008KT 5SM SHRA VCTS OVC040CB
     FM160900 14007KT 5SM -SHRA BR OVC025=

USA.gov is the U.S. government's official web portal to all federal, state and local government web resources and services.